Time;durP1;ratioP1;P1;durP2;ratioP2;P2;SDS_P1;SDS_P2;PMS_P1;PMS_P2;Temp;Humidity;BMP_temperature;BMP_pressure;BME280_temperature;BME280_humidity;BME280_pressure;Samples;Min_cycle;Max_cycle;Signal;HPM_P1;HPM_P2
2023/03/27 00:00:44;;;;;;;5.50;1.30;;;2.50;99.90;;;;;;4971237;28;20077;-52
2023/03/27 00:03:12;;;;;;;10.20;1.30;;;2.20;99.90;;;;;;4967836;28;20506;-52
2023/03/27 00:05:39;;;;;;;8.27;1.52;;;2.10;99.90;;;;;;4971297;28;20046;-51
2023/03/27 00:08:05;;;;;;;9.05;1.55;;;2.20;99.90;;;;;;4969775;28;20402;-50
2023/03/27 00:10:31;;;;;;;7.70;1.40;;;2.20;99.90;;;;;;4970201;28;20500;-48
2023/03/27 00:12:58;;;;;;;7.97;1.20;;;2.20;99.90;;;;;;4970544;28;20039;-48
2023/03/27 00:15:24;;;;;;;10.10;1.60;;;2.30;99.90;;;;;;4971151;28;20035;-47
2023/03/27 00:17:51;;;;;;;13.70;1.70;;;2.20;99.90;;;;;;4969350;28;20118;-47
2023/03/27 00:20:22;;;;;;;6.40;1.27;;;2.30;99.90;;;;;;4970106;28;20113;-51
2023/03/27 00:22:54;;;;;;;6.15;1.33;;;2.30;99.90;;;;;;4970273;28;20151;-50
2023/03/27 00:25:25;;;;;;;5.97;1.30;;;2.20;99.90;;;;;;4970124;28;20042;-47
2023/03/27 00:27:53;;;;;;;8.43;1.70;;;2.30;99.90;;;;;;4970121;28;20042;-48
2023/03/27 00:30:19;;;;;;;11.45;1.40;;;2.40;99.90;;;;;;4968933;28;20051;-49
2023/03/27 00:32:46;;;;;;;5.35;1.00;;;2.20;99.90;;;;;;4952473;28;20050;-49
2023/03/27 00:35:13;;;;;;;6.00;1.17;;;2.20;99.90;;;;;;4937078;28;20509;-50
2023/03/27 00:37:39;;;;;;;8.00;1.20;;;2.20;99.90;;;;;;4968776;28;20090;-51
2023/03/27 00:40:16;;;;;;;3.65;1.02;;;2.20;99.90;;;;;;4970170;28;20041;-50
2023/03/27 00:42:47;;;;;;;3.40;1.00;;;2.10;99.90;;;;;;4969507;28;20047;-48
2023/03/27 00:45:21;;;;;;;3.08;1.05;;;2.10;99.90;;;;;;4970535;28;20038;-49
2023/03/27 00:47:52;;;;;;;9.15;1.25;;;2.10;99.90;;;;;;4969007;28;20118;-49
2023/03/27 00:50:24;;;;;;;6.38;0.85;;;2.10;99.90;;;;;;4966501;28;20050;-49
2023/03/27 00:52:55;;;;;;;6.10;1.02;;;2.10;99.90;;;;;;4953010;28;20121;-51
2023/03/27 00:55:22;;;;;;;6.82;1.15;;;2.10;99.90;;;;;;4968708;28;20039;-47
2023/03/27 00:57:56;;;;;;;3.63;0.75;;;2.10;99.90;;;;;;4969485;28;20125;-52
2023/03/27 01:00:22;;;;;;;4.53;1.20;;;2.10;99.90;;;;;;4969920;28;20046;-50
2023/03/27 01:02:49;;;;;;;8.30;1.00;;;2.10;99.90;;;;;;4968692;28;20051;-52
2023/03/27 01:05:17;;;;;;;7.80;1.20;;;2.10;99.90;;;;;;4970386;28;20034;-51
2023/03/27 01:07:43;;;;;;;5.50;0.95;;;2.10;99.90;;;;;;4970179;28;20110;-50
2023/03/27 01:10:10;;;;;;;4.68;0.93;;;2.00;99.90;;;;;;4970598;28;20065;-51
2023/03/27 01:12:46;;;;;;;6.53;0.90;;;2.10;99.90;;;;;;4968954;28;20594;-48
2023/03/27 01:15:40;;;;;;;6.82;0.82;;;1.90;99.90;;;;;;4971934;28;20140;-50
2023/03/27 01:18:38;;;;;;;8.75;1.17;;;1.90;99.90;;;;;;4970208;28;20035;-50
2023/03/27 01:21:10;;;;;;;5.88;0.90;;;1.90;99.90;;;;;;4949536;28;20046;-48
2023/03/27 01:23:58;;;;;;;10.95;1.17;;;1.90;99.90;;;;;;4973461;28;20159;-48
2023/03/27 01:27:01;;;;;;;5.18;0.90;;;1.80;99.90;;;;;;4972707;28;20035;-47
2023/03/27 01:29:51;;;;;;;3.45;1.00;;;1.80;99.90;;;;;;4970530;28;20134;-50
2023/03/27 01:32:26;;;;;;;5.68;1.23;;;1.80;99.90;;;;;;4972989;28;20097;-50
2023/03/27 01:35:11;;;;;;;7.43;1.13;;;1.80;99.90;;;;;;4955118;28;20066;-49
2023/03/27 01:38:08;;;;;;;7.65;1.35;;;1.70;99.90;;;;;;4972659;28;20096;-49
2023/03/27 01:41:00;;;;;;;6.05;1.52;;;1.80;99.90;;;;;;4972355;28;20039;-49
2023/03/27 01:43:31;;;;;;;9.13;1.08;;;1.70;99.90;;;;;;4939467;28;20402;-51
2023/03/27 01:46:15;;;;;;;8.93;1.10;;;1.70;99.90;;;;;;4971208;28;20118;-50
2023/03/27 01:48:56;;;;;;;6.63;1.00;;;1.70;99.90;;;;;;4954081;28;20049;-50
2023/03/27 01:51:34;;;;;;;7.03;1.23;;;1.60;99.90;;;;;;4972857;28;20397;-46
2023/03/27 01:54:24;;;;;;;11.15;1.10;;;1.60;99.90;;;;;;4973392;28;20137;-49
2023/03/27 01:57:00;;;;;;;4.88;1.05;;;1.70;99.90;;;;;;4966858;28;20501;-48
2023/03/27 01:59:29;;;;;;;5.00;1.17;;;1.60;99.90;;;;;;4972743;28;20042;-48
2023/03/27 02:02:10;;;;;;;7.30;1.30;;;1.60;99.90;;;;;;4972291;28;20499;-48
2023/03/27 02:04:51;;;;;;;7.18;1.17;;;1.60;99.90;;;;;;4973389;28;20778;-51
2023/03/27 02:07:24;;;;;;;2.88;0.90;;;1.60;99.90;;;;;;4953341;28;20039;-49
2023/03/27 02:09:54;;;;;;;11.20;1.45;;;1.70;99.90;;;;;;4971378;28;20054;-50
2023/03/27 02:12:36;;;;;;;9.68;1.45;;;1.70;99.90;;;;;;4972909;28;20039;-50
2023/03/27 02:15:13;;;;;;;6.15;1.23;;;1.60;99.90;;;;;;4972231;28;20047;-49
2023/03/27 02:17:44;;;;;;;3.58;0.80;;;1.60;99.90;;;;;;4972850;28;20049;-50
2023/03/27 02:20:15;;;;;;;9.15;1.20;;;1.70;99.90;;;;;;4954297;28;20098;-51
2023/03/27 02:22:47;;;;;;;4.78;0.93;;;1.60;99.90;;;;;;4971834;28;20442;-51
2023/03/27 02:25:21;;;;;;;7.13;1.00;;;1.60;99.90;;;;;;4953219;28;20475;-52
2023/03/27 02:27:51;;;;;;;13.30;1.80;;;1.60;99.90;;;;;;4954054;28;20042;-51
2023/03/27 02:30:41;;;;;;;11.82;1.27;;;1.70;99.90;;;;;;4972393;28;20459;-48
2023/03/27 02:33:13;;;;;;;5.75;1.05;;;1.60;99.90;;;;;;4970891;28;20051;-48
2023/03/27 02:36:04;;;;;;;8.55;1.10;;;1.60;99.90;;;;;;4971845;28;20123;-50
2023/03/27 02:38:45;;;;;;;9.60;1.10;;;2.00;99.90;;;;;;4972339;28;20039;-49
2023/03/27 02:41:10;;;;;;;9.88;1.10;;;1.60;99.90;;;;;;4971990;28;20039;-51
2023/03/27 02:43:57;;;;;;;6.85;0.93;;;1.60;99.90;;;;;;4971756;28;20056;-51
2023/03/27 02:46:29;;;;;;;7.05;2.10;;;1.60;99.90;;;;;;4970895;28;20047;-52
2023/03/27 02:48:59;;;;;;;5.22;1.00;;;1.60;99.90;;;;;;4953886;28;20050;-52
2023/03/27 02:51:32;;;;;;;5.13;0.80;;;1.70;99.90;;;;;;4972161;28;20121;-51
2023/03/27 02:54:03;;;;;;;7.38;1.20;;;2.00;99.90;;;;;;4953977;28;20034;-49
2023/03/27 02:56:32;;;;;;;7.90;1.50;;;1.80;99.90;;;;;;4971252;28;20367;-51
2023/03/27 02:59:07;;;;;;;5.38;1.10;;;2.00;99.90;;;;;;4970803;28;20043;-49
2023/03/27 03:01:34;;;;;;;5.03;0.90;;;1.90;99.90;;;;;;4971441;28;20439;-50
2023/03/27 03:04:15;;;;;;;9.48;1.00;;;2.00;99.90;;;;;;4954890;28;20512;-51
2023/03/27 03:06:42;;;;;;;1.40;0.68;;;2.00;99.90;;;;;;4970849;28;20511;-50
2023/03/27 03:09:08;;;;;;;1.75;0.98;;;2.00;99.90;;;;;;4971462;28;20047;-50
2023/03/27 03:11:38;;;;;;;5.53;0.63;;;2.00;99.90;;;;;;4970615;28;20045;-52
2023/03/27 03:14:04;;;;;;;10.63;1.13;;;1.90;99.90;;;;;;4971535;28;20034;-49
2023/03/27 03:16:30;;;;;;;10.55;1.52;;;1.80;99.90;;;;;;4971575;28;20035;-51
2023/03/27 03:18:56;;;;;;;3.20;0.80;;;1.80;99.90;;;;;;4954922;28;20043;-50
2023/03/27 03:21:22;;;;;;;4.10;0.70;;;1.80;99.90;;;;;;4970884;28;20043;-49
2023/03/27 03:23:47;;;;;;;11.98;1.05;;;1.80;99.90;;;;;;4971102;28;20046;-49
2023/03/27 03:26:14;;;;;;;7.35;0.90;;;1.70;99.90;;;;;;4970358;28;20467;-47
2023/03/27 03:28:40;;;;;;;8.18;0.93;;;1.60;99.90;;;;;;4970499;28;20557;-49
2023/03/27 03:31:09;;;;;;;2.88;0.60;;;1.60;99.90;;;;;;4970867;28;20067;-49
2023/03/27 03:33:36;;;;;;;3.30;0.73;;;1.70;99.90;;;;;;4969744;28;20039;-51
2023/03/27 03:36:03;;;;;;;7.80;0.70;;;1.80;99.90;;;;;;4970200;28;20043;-52
2023/03/27 03:38:29;;;;;;;6.15;1.25;;;1.80;99.90;;;;;;4969311;28;20121;-52
2023/03/27 03:40:57;;;;;;;4.68;1.00;;;2.00;99.90;;;;;;4952195;28;20038;-50
2023/03/27 03:43:28;;;;;;;6.15;0.85;;;2.10;99.90;;;;;;4971698;28;20042;-51
2023/03/27 03:45:55;;;;;;;3.50;0.77;;;2.10;99.90;;;;;;4953029;28;20138;-52
2023/03/27 03:48:22;;;;;;;3.35;0.90;;;2.30;99.90;;;;;;4969790;28;20423;-52
2023/03/27 03:50:48;;;;;;;7.50;0.93;;;2.10;99.90;;;;;;4969876;28;20039;-51
2023/03/27 03:53:16;;;;;;;6.95;1.05;;;2.10;99.90;;;;;;4971667;28;20482;-50
2023/03/27 03:55:43;;;;;;;4.25;0.82;;;1.90;99.90;;;;;;4970110;28;20074;-50
2023/03/27 03:58:09;;;;;;;3.47;1.08;;;2.00;99.90;;;;;;4970883;28;20054;-48
2023/03/27 04:00:38;;;;;;;4.53;0.70;;;2.00;99.90;;;;;;4970475;28;20043;-49
2023/03/27 04:03:07;;;;;;;7.38;1.00;;;1.80;99.90;;;;;;4971207;28;20522;-52
2023/03/27 04:05:34;;;;;;;4.38;1.40;;;2.30;99.90;;;;;;4951748;28;20046;-50
2023/03/27 04:07:59;;;;;;;5.45;0.80;;;1.90;99.90;;;;;;4970174;28;20483;-48
2023/03/27 04:10:26;;;;;;;4.60;0.70;;;1.80;99.90;;;;;;4970636;28;20045;-47
2023/03/27 04:12:52;;;;;;;5.18;1.38;;;1.90;99.90;;;;;;4954740;28;20169;-48
2023/03/27 04:15:18;;;;;;;6.95;0.80;;;1.70;99.90;;;;;;4972120;28;20113;-50
2023/03/27 04:17:47;;;;;;;4.50;0.80;;;1.70;99.90;;;;;;4952434;28;20050;-50
2023/03/27 04:20:13;;;;;;;7.25;0.95;;;1.60;99.90;;;;;;4970542;28;20185;-51
2023/03/27 04:22:45;;;;;;;6.13;1.20;;;1.50;99.90;;;;;;4953003;28;20054;-50
2023/03/27 04:25:12;;;;;;;5.13;0.88;;;1.50;99.90;;;;;;4970902;28;20042;-48
2023/03/27 04:27:38;;;;;;;4.35;0.90;;;1.50;99.90;;;;;;4970185;28;20528;-48
2023/03/27 04:30:07;;;;;;;6.35;1.15;;;1.50;99.90;;;;;;4970824;28;20059;-50
2023/03/27 04:32:33;;;;;;;4.18;0.80;;;1.40;99.90;;;;;;4969554;28;20086;-53
2023/03/27 04:34:59;;;;;;;8.55;0.90;;;1.40;99.90;;;;;;4952714;28;20102;-52
2023/03/27 04:37:25;;;;;;;5.07;0.88;;;1.40;99.90;;;;;;4951638;28;20053;-51
2023/03/27 04:39:51;;;;;;;6.15;0.95;;;1.20;99.90;;;;;;4970409;28;20039;-51
2023/03/27 04:42:21;;;;;;;2.70;0.70;;;2.70;99.90;;;;;;4968574;28;20039;-51
2023/03/27 04:44:47;;;;;;;2.65;1.10;;;1.30;99.90;;;;;;4971536;28;20057;-51
2023/03/27 04:47:13;;;;;;;4.88;0.80;;;1.40;99.90;;;;;;4970631;28;20039;-51
2023/03/27 04:49:45;;;;;;;8.27;1.05;;;1.30;99.90;;;;;;4972982;28;20043;-52
2023/03/27 04:52:13;;;;;;;2.58;0.75;;;1.90;99.90;;;;;;4973223;28;20362;-51
2023/03/27 04:54:40;;;;;;;6.85;1.45;;;1.40;99.90;;;;;;4972824;28;20070;-49
2023/03/27 04:57:07;;;;;;;5.40;0.90;;;1.40;99.90;;;;;;4974309;28;20410;-53
2023/03/27 04:59:33;;;;;;;4.65;0.95;;;1.40;99.90;;;;;;4941994;28;20061;-47
2023/03/27 05:02:00;;;;;;;10.35;0.90;;;1.50;99.90;;;;;;4973026;28;20101;-47
2023/03/27 05:04:27;;;;;;;9.30;1.15;;;1.60;99.90;;;;;;4974866;28;20474;-48
2023/03/27 05:06:54;;;;;;;5.90;1.13;;;2.00;99.90;;;;;;4972911;28;20053;-50
2023/03/27 05:09:20;;;;;;;14.10;1.20;;;1.60;99.90;;;;;;4973740;28;20118;-49
2023/03/27 05:11:48;;;;;;;6.78;1.10;;;1.50;99.90;;;;;;4973309;28;20054;-49
2023/03/27 05:14:18;;;;;;;5.57;0.88;;;1.70;99.90;;;;;;4956536;28;20072;-50
2023/03/27 05:16:44;;;;;;;5.70;1.05;;;1.70;99.90;;;;;;4972900;28;20110;-47
2023/03/27 05:19:10;;;;;;;8.93;1.45;;;1.70;99.90;;;;;;4973835;28;20039;-48
2023/03/27 05:21:39;;;;;;;10.50;1.67;;;1.70;99.90;;;;;;4972190;28;20101;-48
2023/03/27 05:24:05;;;;;;;9.73;1.20;;;1.50;99.90;;;;;;4973228;28;20494;-54
2023/03/27 05:26:31;;;;;;;9.93;1.40;;;1.70;99.90;;;;;;4972761;28;20088;-50
2023/03/27 05:28:58;;;;;;;7.55;1.48;;;1.80;99.90;;;;;;4973652;28;20142;-48
2023/03/27 05:31:24;;;;;;;9.18;1.10;;;1.80;99.90;;;;;;4973759;28;20506;-52
2023/03/27 05:33:51;;;;;;;10.75;1.75;;;1.80;99.90;;;;;;4974915;28;20050;-47
2023/03/27 05:36:18;;;;;;;5.93;1.30;;;1.80;99.90;;;;;;4956773;28;21630;-50
2023/03/27 05:38:44;;;;;;;4.38;1.15;;;1.80;99.90;;;;;;4956738;28;20035;-48
2023/03/27 05:41:10;;;;;;;8.55;1.40;;;1.90;99.90;;;;;;4973625;28;20060;-49
2023/03/27 05:43:37;;;;;;;9.25;2.03;;;1.80;99.90;;;;;;4973544;28;20054;-48
2023/03/27 05:46:03;;;;;;;6.47;1.23;;;1.80;99.90;;;;;;4973946;28;20109;-54
2023/03/27 05:48:29;;;;;;;7.35;1.20;;;1.80;99.90;;;;;;4974526;28;20450;-52
2023/03/27 05:50:54;;;;;;;8.40;1.42;;;1.60;99.90;;;;;;4973543;28;20062;-50
2023/03/27 05:53:20;;;;;;;5.72;1.33;;;1.70;99.90;;;;;;4972661;28;20382;-51
2023/03/27 05:55:46;;;;;;;8.88;1.20;;;1.60;99.90;;;;;;4971701;28;20038;-48
2023/03/27 05:58:13;;;;;;;8.13;1.30;;;1.60;99.90;;;;;;4955213;28;20050;-49
2023/03/27 06:00:43;;;;;;;6.68;1.20;;;1.70;99.90;;;;;;4971337;28;20073;-48
2023/03/27 06:03:11;;;;;;;3.90;1.00;;;1.80;99.90;;;;;;4973380;28;20042;-50
2023/03/27 06:05:39;;;;;;;4.40;1.10;;;1.90;99.90;;;;;;4972052;28;20136;-50
2023/03/27 06:08:07;;;;;;;10.23;1.45;;;2.00;99.90;;;;;;4973561;28;20093;-49
2023/03/27 06:10:33;;;;;;;5.53;1.10;;;2.00;99.90;;;;;;4971665;28;20047;-50
2023/03/27 06:13:00;;;;;;;5.90;1.08;;;2.00;99.90;;;;;;4973858;28;20047;-55
2023/03/27 06:15:26;;;;;;;2.85;0.85;;;2.20;99.90;;;;;;4971936;28;20505;-52
2023/03/27 06:17:52;;;;;;;7.30;1.00;;;2.20;99.90;;;;;;4971535;28;20117;-48
2023/03/27 06:20:20;;;;;;;3.38;0.90;;;2.30;99.90;;;;;;4956141;28;20050;-50
2023/03/27 06:22:54;;;;;;;9.50;1.10;;;2.30;99.90;;;;;;4974205;28;20045;-49
2023/03/27 06:25:24;;;;;;;4.63;1.08;;;2.30;99.90;;;;;;4972942;28;20043;-47
2023/03/27 06:27:50;;;;;;;6.38;1.40;;;2.50;99.90;;;;;;4973075;28;20046;-47
2023/03/27 06:30:22;;;;;;;8.07;1.20;;;3.00;99.90;;;;;;4969103;28;20059;-49
2023/03/27 06:32:56;;;;;;;7.05;1.17;;;2.50;99.90;;;;;;4971588;28;20459;-51
2023/03/27 06:35:22;;;;;;;;;;;2.40;99.90;;;;;;4965771;28;20467;-49
2023/03/27 06:37:49;;;;;;;5.90;1.30;;;2.60;99.90;;;;;;4940636;28;20009;-48
2023/03/27 06:40:23;;;;;;;8.75;1.67;;;2.60;99.90;;;;;;4959354;28;20090;-49
2023/03/27 06:42:49;;;;;;;8.90;1.50;;;2.50;99.90;;;;;;4945597;28;20117;-49
2023/03/27 06:45:16;;;;;;;6.57;1.60;;;2.60;99.90;;;;;;4969885;28;20498;-49
2023/03/27 06:47:53;;;;;;;6.20;1.23;;;2.70;99.90;;;;;;4970620;28;20034;-51
2023/03/27 06:50:19;;;;;;;10.85;1.10;;;2.70;99.90;;;;;;4970496;28;20129;-46
2023/03/27 06:52:47;;;;;;;5.40;1.35;;;2.70;99.90;;;;;;4972742;28;20039;-51
2023/03/27 06:55:14;;;;;;;4.03;1.38;;;2.70;99.90;;;;;;4953588;28;20122;-49
2023/03/27 06:57:49;;;;;;;8.48;1.02;;;2.80;99.90;;;;;;4971451;28;20043;-50
2023/03/27 07:02:58;;;;;;;3.55;0.80;;;3.00;99.90;;;;;;5127471;23;20429;-58
2023/03/27 07:05:26;;;;;;;13.27;1.02;;;3.00;99.90;;;;;;4961510;28;20082;-59
2023/03/27 07:07:53;;;;;;;10.05;1.30;;;3.10;99.90;;;;;;4958459;28;20312;-59
2023/03/27 07:10:19;;;;;;;3.97;0.65;;;3.20;99.90;;;;;;4955753;28;20157;-59
2023/03/27 07:12:47;;;;;;;7.05;0.88;;;3.20;99.90;;;;;;4959241;28;20047;-57
2023/03/27 07:15:14;;;;;;;9.52;1.60;;;3.30;99.90;;;;;;4959563;28;20092;-57
2023/03/27 07:17:42;;;;;;;7.78;1.65;;;3.30;99.90;;;;;;4957236;28;20062;-57
2023/03/27 07:20:09;;;;;;;8.48;1.95;;;3.30;99.90;;;;;;4958356;28;20394;-59
2023/03/27 07:22:35;;;;;;;8.57;1.50;;;3.40;99.90;;;;;;4957050;28;20039;-59
2023/03/27 07:25:00;;;;;;;6.82;1.27;;;3.40;99.90;;;;;;4958558;28;20042;-59
2023/03/27 07:27:26;;;;;;;8.25;1.30;;;3.50;99.90;;;;;;4957044;28;20054;-59
2023/03/27 07:29:52;;;;;;;12.68;1.50;;;3.60;99.90;;;;;;4958741;28;20035;-59
2023/03/27 07:32:18;;;;;;;13.65;1.88;;;3.60;99.90;;;;;;4956505;28;20046;-57
2023/03/27 07:34:44;;;;;;;11.30;1.50;;;3.70;99.90;;;;;;4957594;28;20039;-57
2023/03/27 07:37:10;;;;;;;10.38;1.52;;;3.70;99.90;;;;;;4958309;28;20121;-57
2023/03/27 07:39:35;;;;;;;6.13;0.98;;;3.80;99.90;;;;;;4958032;28;20031;-59
2023/03/27 07:42:02;;;;;;;5.70;1.25;;;3.80;99.90;;;;;;4958271;28;20042;-59
2023/03/27 07:44:27;;;;;;;7.22;1.30;;;3.90;99.90;;;;;;4957632;28;20122;-59
2023/03/27 07:46:53;;;;;;;7.28;1.65;;;4.50;99.90;;;;;;4957584;28;20121;-59
2023/03/27 07:49:19;;;;;;;11.02;1.58;;;4.00;99.90;;;;;;4956866;28;20042;-59
2023/03/27 07:51:45;;;;;;;5.70;1.02;;;4.10;99.90;;;;;;4960300;28;20035;-59
2023/03/27 07:54:14;;;;;;;7.78;1.10;;;4.10;99.90;;;;;;4957155;28;20043;-59
2023/03/27 07:56:40;;;;;;;13.55;1.20;;;4.20;99.90;;;;;;4949682;28;20602;-57
2023/03/27 07:59:05;;;;;;;6.30;0.88;;;4.20;99.90;;;;;;4958614;28;20118;-59
2023/03/27 08:01:31;;;;;;;8.10;1.30;;;4.30;99.90;;;;;;4953368;28;20027;-58
2023/03/27 08:03:58;;;;;;;7.72;1.45;;;4.30;99.90;;;;;;4964244;28;20051;-59
2023/03/27 08:06:24;;;;;;;8.93;1.73;;;4.50;99.90;;;;;;4944171;28;20047;-57
2023/03/27 08:08:50;;;;;;;8.68;1.88;;;4.50;99.90;;;;;;4948931;28;20462;-57
2023/03/27 08:11:17;;;;;;;7.93;1.40;;;4.50;99.90;;;;;;4948178;28;20118;-57
2023/03/27 08:13:43;;;;;;;9.63;2.00;;;4.60;99.90;;;;;;4949392;28;20114;-57
2023/03/27 08:16:12;;;;;;;10.82;2.13;;;4.60;99.90;;;;;;4949015;28;20138;-57
2023/03/27 08:18:37;;;;;;;6.30;1.60;;;4.70;99.90;;;;;;4948833;28;20603;-57
2023/03/27 08:21:05;;;;;;;6.05;1.88;;;4.70;99.90;;;;;;4946250;28;20037;-57
2023/03/27 08:23:32;;;;;;;6.05;1.50;;;4.80;99.90;;;;;;4949408;28;20079;-57
2023/03/27 08:25:59;;;;;;;7.45;1.40;;;4.80;99.90;;;;;;4949635;28;20039;-57
2023/03/27 08:28:29;;;;;;;11.05;1.65;;;4.90;99.90;;;;;;4950613;28;20070;-57
2023/03/27 08:30:56;;;;;;;11.40;2.13;;;5.00;99.90;;;;;;4949181;28;20051;-57
2023/03/27 08:33:22;;;;;;;10.10;1.92;;;5.20;99.90;;;;;;4949231;28;20126;-57
2023/03/27 08:35:49;;;;;;;6.25;1.00;;;5.30;99.90;;;;;;4948628;28;20087;-57
2023/03/27 08:38:16;;;;;;;5.43;1.00;;;5.30;99.90;;;;;;4950219;28;20080;-57
2023/03/27 08:40:52;;;;;;;5.70;1.00;;;5.40;99.90;;;;;;4953864;28;20030;-57
2023/03/27 08:43:26;;;;;;;4.38;0.77;;;5.20;99.90;;;;;;4953965;28;20039;-58
2023/03/27 08:46:21;;;;;;;3.92;0.68;;;5.20;99.90;;;;;;4951107;28;20042;-59
2023/03/27 08:49:10;;;;;;;2.15;0.60;;;5.10;99.90;;;;;;4949140;28;20106;-58
2023/03/27 08:51:45;;;;;;;4.25;0.73;;;5.20;99.90;;;;;;4948839;28;20102;-59
2023/03/27 08:54:11;;;;;;;2.97;0.70;;;5.20;99.90;;;;;;4949049;28;20565;-59
2023/03/27 08:56:37;;;;;;;2.47;0.75;;;5.10;99.90;;;;;;4948282;28;20043;-59
2023/03/27 08:59:10;;;;;;;5.93;1.65;;;5.10;99.90;;;;;;4947894;28;20031;-56
2023/03/27 09:01:44;;;;;;;5.93;1.58;;;5.00;99.90;;;;;;4948399;28;20143;-59
2023/03/27 09:04:31;;;;;;;4.28;1.20;;;5.00;99.90;;;;;;4949526;28;20047;-59
2023/03/27 09:07:08;;;;;;;8.25;1.13;;;5.10;99.90;;;;;;4939425;28;20055;-59
2023/03/27 09:09:38;;;;;;;4.72;1.60;;;5.10;99.90;;;;;;4948047;28;20105;-59
2023/03/27 09:12:37;;;;;;;8.95;1.80;;;5.20;99.90;;;;;;4949227;28;20046;-59
2023/03/27 09:15:15;;;;;;;7.85;1.98;;;5.20;99.90;;;;;;4948933;28;20066;-59
2023/03/27 09:17:56;;;;;;;7.20;1.67;;;5.30;99.90;;;;;;4947931;28;20106;-60
2023/03/27 09:21:02;;;;;;;7.57;1.40;;;5.30;99.90;;;;;;4951635;28;20405;-60
2023/03/27 09:23:44;;;;;;;6.95;1.38;;;5.80;99.90;;;;;;4897180;29;20903;-59
2023/03/27 09:26:33;;;;;;;9.77;1.58;;;5.60;99.90;;;;;;4943458;28;20058;-59
2023/03/27 09:29:01;;;;;;;6.88;1.48;;;6.20;99.90;;;;;;4947985;28;20043;-59
2023/03/27 09:31:33;;;;;;;7.57;1.35;;;5.90;99.90;;;;;;4948694;28;20043;-59
2023/03/27 09:34:05;;;;;;;6.30;1.10;;;6.00;99.90;;;;;;4947472;28;20130;-59
2023/03/27 09:36:34;;;;;;;10.73;1.77;;;5.90;99.90;;;;;;4952986;28;20058;-59
2023/03/27 09:39:06;;;;;;;5.80;1.10;;;5.80;99.90;;;;;;4953093;28;20047;-59
2023/03/27 09:41:51;;;;;;;8.68;1.80;;;5.60;99.90;;;;;;4954451;28;20031;-56
2023/03/27 09:44:25;;;;;;;11.85;1.63;;;5.50;99.90;;;;;;4948366;28;20042;-59
2023/03/27 09:47:10;;;;;;;8.73;1.70;;;5.40;99.90;;;;;;4951902;28;20453;-59
2023/03/27 09:49:39;;;;;;;12.88;2.33;;;5.30;99.90;;;;;;4952130;28;20038;-60
2023/03/27 09:52:06;;;;;;;7.57;1.63;;;5.40;99.90;;;;;;4950292;28;20034;-59
2023/03/27 09:54:52;;;;;;;7.97;1.67;;;5.60;99.90;;;;;;4953702;28;20083;-59
2023/03/27 09:57:19;;;;;;;9.55;1.92;;;5.90;99.90;;;;;;4951063;28;20043;-60
2023/03/27 10:00:06;;;;;;;7.32;1.10;;;6.10;99.90;;;;;;4953493;28;20039;-59
2023/03/27 10:02:32;;;;;;;7.57;1.35;;;6.10;99.90;;;;;;4950463;28;20220;-59
2023/03/27 10:05:02;;;;;;;8.15;1.42;;;6.20;99.90;;;;;;4953034;28;20469;-59
2023/03/27 10:07:28;;;;;;;9.82;1.70;;;6.30;99.90;;;;;;4956469;28;20434;-57
2023/03/27 10:10:14;;;;;;;7.50;1.40;;;6.60;99.90;;;;;;4955785;28;20130;-57
2023/03/27 10:12:41;;;;;;;10.30;1.55;;;6.70;99.90;;;;;;4951157;28;20068;-57
2023/03/27 10:15:27;;;;;;;8.60;1.40;;;6.80;99.90;;;;;;4951633;28;20112;-57
2023/03/27 10:17:53;;;;;;;5.97;1.50;;;6.60;99.90;;;;;;4941435;28;20071;-57
2023/03/27 10:20:21;;;;;;;5.53;1.20;;;6.40;99.90;;;;;;4949242;28;20082;-58
2023/03/27 10:22:51;;;;;;;10.65;1.55;;;6.30;99.90;;;;;;4950422;28;20390;-57
2023/03/27 10:25:28;;;;;;;5.65;1.00;;;6.40;99.90;;;;;;4966095;28;20486;-57
2023/03/27 10:28:16;;;;;;;4.95;0.93;;;6.50;99.90;;;;;;4948034;28;20701;-58
2023/03/27 10:30:42;;;;;;;4.05;0.80;;;6.50;99.90;;;;;;4958482;28;20058;-58
2023/03/27 10:33:08;;;;;;;2.95;0.70;;;6.60;99.90;;;;;;4965592;28;20035;-57
2023/03/27 10:35:42;;;;;;;6.18;1.20;;;6.60;99.90;;;;;;4957567;28;20070;-58
2023/03/27 10:38:12;;;;;;;;;;;6.80;99.90;;;;;;4958381;28;20035;-57
2023/03/27 10:40:39;;;;;;;4.03;0.85;;;6.70;99.90;;;;;;4957893;28;20383;-57
2023/03/27 10:43:16;;;;;;;5.95;1.30;;;7.00;99.90;;;;;;4959215;28;20441;-58
2023/03/27 10:45:48;;;;;;;5.90;1.23;;;6.90;99.90;;;;;;4956810;28;20086;-58
2023/03/27 10:48:42;;;;;;;4.03;0.73;;;7.00;99.90;;;;;;4956894;28;20039;-58
2023/03/27 10:51:33;;;;;;;2.65;0.70;;;7.10;99.90;;;;;;4949282;28;20210;-58
2023/03/27 10:54:14;;;;;;;3.42;0.50;;;7.20;99.90;;;;;;4960078;28;20030;-58
2023/03/27 10:56:48;;;;;;;2.92;0.65;;;7.30;99.90;;;;;;4959259;28;20150;-58
2023/03/27 10:59:25;;;;;;;5.05;0.70;;;7.50;99.90;;;;;;4957648;28;20055;-58
2023/03/27 11:01:56;;;;;;;3.22;0.60;;;7.60;99.90;;;;;;4961175;28;20035;-58
2023/03/27 11:04:51;;;;;;;3.53;0.68;;;7.70;99.90;;;;;;4957615;28;20058;-58
2023/03/27 11:07:28;;;;;;;3.17;0.43;;;7.80;99.90;;;;;;4950031;28;20051;-58
2023/03/27 11:09:59;;;;;;;4.85;0.75;;;7.80;99.90;;;;;;4955077;28;20031;-57
2023/03/27 11:12:27;;;;;;;4.63;0.60;;;7.70;99.90;;;;;;4957504;28;20039;-58
2023/03/27 11:15:00;;;;;;;3.95;0.80;;;7.70;99.90;;;;;;4957612;28;20047;-58
2023/03/27 11:17:38;;;;;;;4.22;0.80;;;7.70;99.90;;;;;;4957461;28;20043;-58
2023/03/27 11:20:15;;;;;;;5.15;0.90;;;7.70;99.90;;;;;;4955776;28;20045;-58
2023/03/27 11:22:54;;;;;;;3.85;0.73;;;7.60;99.90;;;;;;4955770;28;20050;-58
2023/03/27 11:25:45;;;;;;;6.95;0.70;;;7.80;99.90;;;;;;4956941;28;20043;-58
2023/03/27 11:28:32;;;;;;;5.03;0.80;;;7.90;99.90;;;;;;4956144;28;20526;-58
2023/03/27 11:31:19;;;;;;;6.95;1.02;;;7.90;99.90;;;;;;4957986;28;20042;-58
2023/03/27 11:33:53;;;;;;;4.15;0.60;;;7.80;99.90;;;;;;4959255;28;20055;-58
2023/03/27 11:36:36;;;;;;;6.35;0.95;;;7.80;99.90;;;;;;4959566;28;20490;-57
2023/03/27 11:39:21;;;;;;;4.13;1.13;;;7.90;99.90;;;;;;4956440;28;20378;-58
2023/03/27 11:41:54;;;;;;;7.35;1.05;;;8.10;99.90;;;;;;4961950;28;20046;-58
2023/03/27 11:44:22;;;;;;;8.98;1.20;;;8.40;99.90;;;;;;4954739;28;20534;-58
2023/03/27 11:47:06;;;;;;;6.95;0.80;;;8.50;99.90;;;;;;4957039;28;20050;-58
2023/03/27 11:50:02;;;;;;;9.52;1.23;;;8.40;99.90;;;;;;4952072;28;20031;-58
2023/03/27 11:52:43;;;;;;;8.27;1.10;;;7.50;99.90;;;;;;4970061;28;20402;-58
2023/03/27 11:55:56;;;;;;;4.10;0.85;;;6.60;99.90;;;;;;4963416;28;20035;-58
2023/03/27 11:58:40;;;;;;;2.10;0.60;;;6.00;99.90;;;;;;4957279;28;20043;-58
2023/03/27 12:01:13;;;;;;;5.23;0.60;;;5.40;99.90;;;;;;4960114;28;20467;-58
2023/03/27 12:03:39;;;;;;;3.25;0.50;;;5.10;99.90;;;;;;4955232;28;20063;-58
2023/03/27 12:06:31;;;;;;;6.72;0.90;;;5.10;99.90;;;;;;4958208;28;20050;-58
2023/03/27 12:09:35;;;;;;;5.60;0.90;;;5.40;99.90;;;;;;4959265;28;20043;-58
2023/03/27 12:12:22;;;;;;;6.50;1.10;;;6.00;99.90;;;;;;4966998;28;20089;-58
2023/03/27 12:15:00;;;;;;;7.18;1.08;;;6.60;99.90;;;;;;4954620;28;20051;-58
2023/03/27 12:17:44;;;;;;;7.50;1.15;;;7.20;99.90;;;;;;4964547;28;20441;-58
2023/03/27 12:20:26;;;;;;;4.60;0.80;;;7.60;99.90;;;;;;4958040;28;20077;-58
2023/03/27 12:23:04;;;;;;;7.13;0.93;;;7.90;99.90;;;;;;4962322;28;20390;-57
2023/03/27 12:25:50;;;;;;;6.88;1.00;;;8.30;99.90;;;;;;4954310;28;20068;-58
2023/03/27 12:28:22;;;;;;;6.90;1.25;;;8.50;99.90;;;;;;4958363;28;20082;-58
2023/03/27 12:31:22;;;;;;;5.25;1.00;;;8.30;99.90;;;;;;4963939;28;20111;-58
2023/03/27 12:34:00;;;;;;;7.80;1.30;;;8.00;99.90;;;;;;4960381;28;20549;-57
2023/03/27 12:36:29;;;;;;;5.35;0.90;;;7.80;99.90;;;;;;4959101;28;20090;-58
2023/03/27 12:38:56;;;;;;;6.47;1.10;;;7.70;99.90;;;;;;4959150;28;20047;-58
2023/03/27 12:41:31;;;;;;;5.78;1.30;;;7.80;99.90;;;;;;4957157;28;20038;-58
2023/03/27 12:43:59;;;;;;;6.30;1.30;;;8.10;99.90;;;;;;4952923;28;20075;-58
2023/03/27 12:46:25;;;;;;;7.35;1.30;;;8.50;99.90;;;;;;4955833;28;20105;-58
2023/03/27 12:49:22;;;;;;;10.18;1.17;;;8.60;99.90;;;;;;4963110;28;20503;-58
2023/03/27 12:51:51;;;;;;;4.18;0.85;;;8.40;99.90;;;;;;4967384;28;20034;-58
2023/03/27 12:54:25;;;;;;;4.00;1.13;;;8.10;99.90;;;;;;4960387;28;20081;-58
2023/03/27 12:57:20;;;;;;;7.07;1.75;;;8.10;99.90;;;;;;4953604;28;20083;-58
2023/03/27 13:00:00;;;;;;;6.30;1.10;;;8.30;99.90;;;;;;4956910;28;20040;-58
2023/03/27 13:03:10;;;;;;;7.80;1.20;;;8.30;99.90;;;;;;4952304;28;20039;-58
2023/03/27 13:05:57;;;;;;;6.00;1.10;;;7.90;99.90;;;;;;4950820;28;20051;-57
2023/03/27 13:08:49;;;;;;;7.82;1.20;;;7.50;99.90;;;;;;4956674;28;20409;-57
2023/03/27 13:11:37;;;;;;;6.60;0.90;;;7.00;99.90;;;;;;4957877;28;20039;-60
2023/03/27 13:14:33;;;;;;;6.15;1.13;;;6.80;99.90;;;;;;4960009;28;20038;-57
2023/03/27 13:17:17;;;;;;;8.52;1.60;;;6.50;99.90;;;;;;4963279;28;20046;-57
2023/03/27 13:19:46;;;;;;;9.05;1.35;;;6.70;99.90;;;;;;4960058;28;20047;-58
2023/03/27 13:22:28;;;;;;;6.57;1.13;;;6.90;99.90;;;;;;4958880;28;20039;-57
2023/03/27 13:25:28;;;;;;;11.15;2.15;;;7.30;99.90;;;;;;4963383;28;20057;-58
2023/03/27 13:28:31;;;;;;;7.53;1.40;;;7.80;99.90;;;;;;4958958;28;20035;-58